createdAt,value
2019-05-13T00:01:06.798Z,5.58
2019-05-13T00:03:33.557Z,5.33
2019-05-13T00:06:04.138Z,5.62
2019-05-13T00:08:34.062Z,6.20
2019-05-13T00:11:04.410Z,5.83
2019-05-13T00:13:34.361Z,6.10
2019-05-13T00:16:03.971Z,6.45
2019-05-13T00:18:34.109Z,6.30
2019-05-13T00:21:03.805Z,5.90
2019-05-13T00:23:33.953Z,6.08
2019-05-13T00:26:03.746Z,6.50
2019-05-13T00:28:34.289Z,6.80
2019-05-13T00:31:04.478Z,6.42
2019-05-13T00:33:34.142Z,6.67
2019-05-13T00:36:04.087Z,6.70
2019-05-13T00:38:33.774Z,7.25
2019-05-13T00:41:03.849Z,8.05
2019-05-13T00:43:34.005Z,7.05
2019-05-13T00:46:03.980Z,7.35
2019-05-13T00:48:33.697Z,6.67
2019-05-13T00:51:03.741Z,7.00
2019-05-13T00:53:35.297Z,7.17
2019-05-13T00:56:04.788Z,6.83
2019-05-13T00:58:34.494Z,6.40
2019-05-13T01:01:03.965Z,6.70
2019-05-13T01:03:33.937Z,7.43
2019-05-13T01:06:04.287Z,6.60
2019-05-13T01:08:34.585Z,7.40
2019-05-13T01:11:04.527Z,7.00
2019-05-13T01:13:34.222Z,7.67
2019-05-13T01:16:03.967Z,7.05
2019-05-13T01:18:33.984Z,7.22
2019-05-13T01:21:04.488Z,7.30
2019-05-13T01:23:34.582Z,6.62
2019-05-13T01:26:04.188Z,6.50
2019-05-13T01:28:34.419Z,6.75
2019-05-13T01:31:04.371Z,6.53
2019-05-13T01:33:35.363Z,6.97
2019-05-13T01:36:05.545Z,6.53
2019-05-13T01:38:35.334Z,6.80
2019-05-13T01:41:04.695Z,6.72
2019-05-13T01:43:34.259Z,6.75
2019-05-13T01:46:06.568Z,6.63
2019-05-13T01:48:36.002Z,6.87
2019-05-13T01:51:05.606Z,6.60
2019-05-13T01:53:35.188Z,7.60
2019-05-13T01:56:04.523Z,7.00
2019-05-13T01:58:34.157Z,6.93
2019-05-13T02:01:05.206Z,7.10
2019-05-13T02:03:34.807Z,7.53
2019-05-13T02:06:04.061Z,7.08
2019-05-13T02:08:33.815Z,7.33
2019-05-13T02:11:04.449Z,6.92
2019-05-13T02:13:34.364Z,7.35
2019-05-13T02:16:04.504Z,6.83
2019-05-13T02:18:34.466Z,6.93
2019-05-13T02:22:44.179Z,7.10
2019-05-13T02:25:13.800Z,6.80
2019-05-13T02:27:44.126Z,6.83
2019-05-13T02:30:16.325Z,6.60
2019-05-13T02:32:44.442Z,7.70
2019-05-13T02:35:14.261Z,6.72
2019-05-13T02:37:43.975Z,7.08
2019-05-13T02:40:13.981Z,6.97
2019-05-13T02:42:43.981Z,7.08
2019-05-13T02:45:14.936Z,7.12
2019-05-13T02:47:44.438Z,6.83
2019-05-13T02:50:13.897Z,7.00
2019-05-13T02:52:44.284Z,7.20
2019-05-13T02:55:13.729Z,6.75
2019-05-13T02:57:43.976Z,7.43
2019-05-13T03:00:15.097Z,7.35
2019-05-13T03:02:44.455Z,7.08
2019-05-13T03:05:14.191Z,7.37
2019-05-13T03:07:43.436Z,7.20
2019-05-13T03:10:14.236Z,7.17
2019-05-13T03:12:43.407Z,8.00
2019-05-13T03:15:13.651Z,7.33
2019-05-13T03:18:03.428Z,7.00
2019-05-13T03:20:33.525Z,7.10
2019-05-13T03:23:03.407Z,7.60
2019-05-13T03:25:33.334Z,7.60
2019-05-13T03:28:03.590Z,7.20
2019-05-13T03:30:35.398Z,7.30
2019-05-13T03:33:10.911Z,7.42
2019-05-13T03:35:37.215Z,8.00
2019-05-13T03:38:06.666Z,7.60
2019-05-13T03:40:37.694Z,8.03
2019-05-13T03:43:12.649Z,7.75
2019-05-13T03:45:43.290Z,7.53
2019-05-13T03:48:13.741Z,8.60
2019-05-13T03:50:43.502Z,9.13
2019-05-13T03:53:13.269Z,8.65
2019-05-13T03:55:43.645Z,7.90
2019-05-13T03:58:13.584Z,8.80
2019-05-13T04:00:42.995Z,8.40
2019-05-13T04:03:15.177Z,8.35
2019-05-13T04:05:44.220Z,8.60
2019-05-13T04:08:13.574Z,8.23
2019-05-13T04:10:43.118Z,8.45
2019-05-13T04:13:13.308Z,8.33
2019-05-13T04:15:43.357Z,8.33
2019-05-13T04:18:13.246Z,8.13
2019-05-13T04:20:43.020Z,8.28
2019-05-13T04:23:15.289Z,8.80
2019-05-13T04:25:45.179Z,8.50
2019-05-13T04:28:16.840Z,8.63
2019-05-13T04:30:46.974Z,8.05
2019-05-13T04:33:16.295Z,8.68
2019-05-13T04:35:46.110Z,8.88
2019-05-13T04:38:18.427Z,8.43
2019-05-13T04:40:48.502Z,7.50
2019-05-13T04:43:19.130Z,8.33
2019-05-13T04:45:52.217Z,8.30
2019-05-13T04:48:22.910Z,7.80
2019-05-13T04:50:53.316Z,8.38
2019-05-13T04:53:23.109Z,9.50
2019-05-13T04:55:52.946Z,8.33
2019-05-13T04:58:25.144Z,8.70
2019-05-13T05:01:52.154Z,9.23
2019-05-13T05:04:31.073Z,8.83
2019-05-13T05:07:25.716Z,8.58
2019-05-13T05:10:42.880Z,8.08
2019-05-13T05:13:36.843Z,8.30
2019-05-13T05:16:32.528Z,7.75
2019-05-13T05:19:37.084Z,8.13
2019-05-13T05:22:25.119Z,8.50
2019-05-13T05:25:37.308Z,7.35
2019-05-13T05:28:38.289Z,7.47
2019-05-13T05:31:44.482Z,8.08
2019-05-13T05:34:58.033Z,7.78
2019-05-13T05:38:05.145Z,7.45
2019-05-13T05:40:36.323Z,5.42
2019-05-13T05:43:07.684Z,6.00
2019-05-13T05:45:41.488Z,6.22
2019-05-13T05:48:12.497Z,6.60
2019-05-13T05:50:43.373Z,6.33
2019-05-13T05:53:17.728Z,6.22
2019-05-13T05:55:51.775Z,5.73
2019-05-13T05:58:24.946Z,5.67
2019-05-13T06:00:56.971Z,5.33
2019-05-13T06:03:32.708Z,5.80
2019-05-13T06:06:03.778Z,5.58
2019-05-13T06:08:33.199Z,5.80
2019-05-13T06:11:11.723Z,4.97
2019-05-13T06:13:44.706Z,4.97
2019-05-13T06:16:21.799Z,5.35
2019-05-13T06:18:58.112Z,3.90
2019-05-13T06:21:33.728Z,4.28
2019-05-13T06:24:03.555Z,4.10
2019-05-13T06:26:37.340Z,4.40
2019-05-13T06:29:12.830Z,4.40
2019-05-13T06:31:44.452Z,4.17
2019-05-13T06:34:13.974Z,3.93
2019-05-13T06:36:49.357Z,4.10
2019-05-13T06:39:22.074Z,3.87
2019-05-13T06:41:53.594Z,3.60
2019-05-13T06:44:24.551Z,3.80
2019-05-13T06:46:56.883Z,3.47
2019-05-13T06:49:26.590Z,3.90
2019-05-13T06:51:56.884Z,3.70
2019-05-13T06:54:33.307Z,3.70
2019-05-13T06:57:07.420Z,4.28
2019-05-13T06:59:39.314Z,3.50
2019-05-13T07:09:51.763Z,3.80
2019-05-13T07:12:22.488Z,4.07
2019-05-13T07:14:53.622Z,3.30
2019-05-13T07:17:25.972Z,3.40
2019-05-13T07:20:02.304Z,3.20
2019-05-13T07:22:32.427Z,3.53
2019-05-13T07:25:11.270Z,3.37
2019-05-13T07:27:42.536Z,3.00
2019-05-13T07:30:14.723Z,3.30
2019-05-13T07:32:49.465Z,3.70
2019-05-13T07:35:25.058Z,3.90
2019-05-13T07:37:56.027Z,3.30
2019-05-13T08:05:24.773Z,2.53
2019-05-13T08:07:58.290Z,2.83
2019-05-13T08:55:21.491Z,2.30
2019-05-13T09:00:46.477Z,2.33
2019-05-13T09:03:15.931Z,2.60
2019-05-13T09:05:45.035Z,2.90
2019-05-13T09:08:14.784Z,2.53
2019-05-13T09:13:12.271Z,3.00
2019-05-13T09:15:42.283Z,2.50
2019-05-13T09:18:11.897Z,2.77
2019-05-13T09:20:41.711Z,2.95
2019-05-13T09:23:12.213Z,2.80
2019-05-13T09:25:41.716Z,2.60
2019-05-13T10:48:14.283Z,1.97
2019-05-13T10:50:43.742Z,2.23
2019-05-13T11:15:45.341Z,2.10
2019-05-13T11:18:19.444Z,2.13
2019-05-13T11:20:45.882Z,2.53
2019-05-13T14:10:53.284Z,1.43
2019-05-13T14:13:23.341Z,1.73
2019-05-13T14:15:53.092Z,1.40
2019-05-13T14:18:26.581Z,1.50
2019-05-13T14:20:54.316Z,2.10
2019-05-13T14:23:32.151Z,1.83
2019-05-13T14:26:01.758Z,1.53
2019-05-13T14:28:32.804Z,1.60
2019-05-13T14:31:05.689Z,1.60
2019-05-13T14:33:35.853Z,1.80
2019-05-13T14:36:05.234Z,1.57
2019-05-13T14:38:35.627Z,1.70
2019-05-13T14:41:08.552Z,1.87
2019-05-13T14:46:04.722Z,1.60
2019-05-13T14:48:34.315Z,1.70
2019-05-13T14:51:03.908Z,1.73
2019-05-13T14:53:35.249Z,1.47
2019-05-13T14:56:04.760Z,1.47
2019-05-13T14:58:34.446Z,1.53
2019-05-13T15:01:15.717Z,1.40
2019-05-13T18:51:04.606Z,1.57
2019-05-13T18:53:34.051Z,2.07
2019-05-13T18:56:12.662Z,1.90
2019-05-13T18:58:42.286Z,1.93
2019-05-13T19:01:11.737Z,1.53
2019-05-13T19:03:41.527Z,1.50
2019-05-13T19:06:11.737Z,1.90
2019-05-13T19:08:41.346Z,2.40
2019-05-13T19:11:35.081Z,2.47
2019-05-13T19:14:08.839Z,2.60
2019-05-13T19:16:42.390Z,2.70
2019-05-13T19:19:23.555Z,2.13
2019-05-13T19:21:53.106Z,2.10
2019-05-13T19:24:22.509Z,2.43
2019-05-13T19:26:52.151Z,1.70
2019-05-13T19:29:21.876Z,1.80
2019-05-13T19:31:54.692Z,1.77
2019-05-13T19:34:32.312Z,1.80
2019-05-13T19:37:02.324Z,2.00
2019-05-13T19:39:32.081Z,2.40
2019-05-13T19:42:04.158Z,1.90
2019-05-13T19:44:33.570Z,1.97
2019-05-13T19:47:03.165Z,2.20
2019-05-13T19:49:36.793Z,2.23
2019-05-13T19:52:03.342Z,2.00
2019-05-13T19:54:32.825Z,2.00
2019-05-13T19:57:03.437Z,2.30
2019-05-13T19:59:33.510Z,2.30
2019-05-13T20:02:03.283Z,2.50
2019-05-13T20:04:33.024Z,2.87
2019-05-13T20:07:02.396Z,2.93
2019-05-13T20:09:32.337Z,2.40
2019-05-13T20:12:03.871Z,2.47
2019-05-13T20:14:35.247Z,2.20
2019-05-13T20:17:04.553Z,2.40
2019-05-13T20:19:46.566Z,2.10
2019-05-13T20:22:06.715Z,1.90
2019-05-13T20:24:36.146Z,1.90
2019-05-13T20:27:05.275Z,1.80
2019-05-13T20:29:34.523Z,1.37
2019-05-13T20:32:03.898Z,1.93
2019-05-13T20:34:33.359Z,2.17
2019-05-13T20:37:02.988Z,1.97
2019-05-13T20:39:32.191Z,2.17
2019-05-13T20:42:01.938Z,2.33
2019-05-13T20:44:31.384Z,2.30
2019-05-13T20:47:01.628Z,2.43
2019-05-13T20:49:31.535Z,1.80
2019-05-13T20:52:01.146Z,2.10
2019-05-13T20:54:31.542Z,1.83
2019-05-13T20:57:02.354Z,2.60
2019-05-13T20:59:34.256Z,2.30
2019-05-13T21:02:03.281Z,2.00
2019-05-13T21:04:33.019Z,1.80
2019-05-13T21:07:04.181Z,2.10
2019-05-13T21:09:34.852Z,1.92
2019-05-13T21:12:05.471Z,2.00
2019-05-13T21:14:35.230Z,1.80
2019-05-13T21:17:04.974Z,2.10
2019-05-13T21:19:39.288Z,1.80
2019-05-13T21:22:05.696Z,2.02
2019-05-13T21:24:34.740Z,1.82
2019-05-13T21:27:06.602Z,2.10
2019-05-13T21:29:37.998Z,1.90
2019-05-13T21:32:11.803Z,1.70
2019-05-13T21:34:43.279Z,1.90
2019-05-13T21:37:12.943Z,1.72
2019-05-13T21:39:43.109Z,1.60
2019-05-13T21:42:12.502Z,1.70
2019-05-13T21:44:42.110Z,1.50
2019-05-13T21:47:11.809Z,1.90
2019-05-13T21:49:42.337Z,1.80
2019-05-13T21:52:11.913Z,1.92
2019-05-13T21:54:42.189Z,1.80
2019-05-13T21:57:12.598Z,2.08
2019-05-13T21:59:45.115Z,1.80
2019-05-13T22:02:14.706Z,1.57
2019-05-13T22:19:41.980Z,1.63
2019-05-13T22:22:11.896Z,1.50
2019-05-13T22:24:42.019Z,1.47
2019-05-13T22:27:13.226Z,1.50
2019-05-13T22:29:42.597Z,1.80
2019-05-13T22:32:12.298Z,1.97
2019-05-13T22:34:43.069Z,1.53
2019-05-13T22:37:12.730Z,1.60
2019-05-13T22:39:42.378Z,1.80
2019-05-13T22:42:12.597Z,1.87
2019-05-13T22:44:42.077Z,1.50
2019-05-13T22:47:13.322Z,1.70
2019-05-13T22:49:42.553Z,1.90
2019-05-13T22:52:11.843Z,1.98
2019-05-13T22:54:41.419Z,1.85
2019-05-13T22:57:11.893Z,1.80
2019-05-13T22:59:41.870Z,1.87
2019-05-13T23:02:11.283Z,1.87
2019-05-13T23:04:41.829Z,2.30
2019-05-13T23:07:11.929Z,1.80
2019-05-13T23:09:42.433Z,2.10
2019-05-13T23:12:12.407Z,2.05
2019-05-13T23:14:42.017Z,2.27
2019-05-13T23:17:12.547Z,2.30
2019-05-13T23:19:42.455Z,2.40
2019-05-13T23:22:12.186Z,2.02
2019-05-13T23:24:41.841Z,1.97
2019-05-13T23:27:11.998Z,2.30
2019-05-13T23:29:42.002Z,2.10
2019-05-13T23:32:12.026Z,1.82
2019-05-13T23:34:42.296Z,1.98
2019-05-13T23:37:12.015Z,1.82
2019-05-13T23:39:41.902Z,2.05
2019-05-13T23:42:12.151Z,1.85
2019-05-13T23:44:41.765Z,2.10
2019-05-13T23:47:11.646Z,2.10
2019-05-13T23:49:42.228Z,2.15
2019-05-13T23:52:12.118Z,1.98
2019-05-13T23:54:42.407Z,1.90
2019-05-13T23:57:12.094Z,2.00
2019-05-13T23:59:41.949Z,2.30
